sensor_id;sensor_type;location;lat;lon;timestamp;pressure;altitude;pressure_sealevel;temperature
75273;BMP280;63869;52.344;16.928;2023-02-22T04:01:36;100851.03;;;4.85
75273;BMP280;63869;52.344;16.928;2023-02-22T04:04:02;100843.41;;;4.80
75273;BMP280;63869;52.344;16.928;2023-02-22T04:06:28;100853.22;;;4.80
75273;BMP280;63869;52.344;16.928;2023-02-22T04:08:54;100861.94;;;4.80
75273;BMP280;63869;52.344;16.928;2023-02-22T04:11:19;100847.00;;;4.69
75273;BMP280;63869;52.344;16.928;2023-02-22T04:13:44;100858.00;;;4.71
75273;BMP280;63869;52.344;16.928;2023-02-22T04:16:10;100840.78;;;4.57
75273;BMP280;63869;52.344;16.928;2023-02-22T04:18:35;100860.25;;;4.69
75273;BMP280;63869;52.344;16.928;2023-02-22T04:21:00;100866.25;;;4.65
75273;BMP280;63869;52.344;16.928;2023-02-22T04:23:26;100853.63;;;4.55
75273;BMP280;63869;52.344;16.928;2023-02-22T04:25:51;100857.81;;;4.56
75273;BMP280;63869;52.344;16.928;2023-02-22T04:28:17;100862.75;;;4.58
75273;BMP280;63869;52.344;16.928;2023-02-22T04:30:43;100861.09;;;4.50
75273;BMP280;63869;52.344;16.928;2023-02-22T04:33:10;100863.38;;;4.51
75273;BMP280;63869;52.344;16.928;2023-02-22T04:35:36;100857.97;;;4.44
75273;BMP280;63869;52.344;16.928;2023-02-22T04:38:01;100872.41;;;4.47
75273;BMP280;63869;52.344;16.928;2023-02-22T04:40:28;100859.38;;;4.38
75273;BMP280;63869;52.344;16.928;2023-02-22T04:42:53;100872.22;;;4.36
75273;BMP280;63869;52.344;16.928;2023-02-22T04:45:19;100876.38;;;4.37
75273;BMP280;63869;52.344;16.928;2023-02-22T04:47:44;100862.22;;;4.26
75273;BMP280;63869;52.344;16.928;2023-02-22T04:50:11;100858.31;;;4.20
75273;BMP280;63869;52.344;16.928;2023-02-22T04:52:36;100872.44;;;4.27
75273;BMP280;63869;52.344;16.928;2023-02-22T04:55:03;100858.22;;;4.13
75273;BMP280;63869;52.344;16.928;2023-02-22T04:57:29;100881.00;;;4.21
75273;BMP280;63869;52.344;16.928;2023-02-22T04:59:55;100882.47;;;4.18
75273;BMP280;63869;52.344;16.928;2023-02-22T05:02:20;100874.09;;;4.13
75273;BMP280;63869;52.344;16.928;2023-02-22T05:04:46;100879.03;;;4.14
75273;BMP280;63869;52.344;16.928;2023-02-22T05:07:11;100857.63;;;4.03
75273;BMP280;63869;52.344;16.928;2023-02-22T05:09:36;100874.00;;;4.09
75273;BMP280;63869;52.344;16.928;2023-02-22T05:12:02;100853.28;;;3.92
75273;BMP280;63869;52.344;16.928;2023-02-22T05:14:27;100878.38;;;4.01
75273;BMP280;63869;52.344;16.928;2023-02-22T05:16:54;100874.56;;;3.99
75273;BMP280;63869;52.344;16.928;2023-02-22T05:19:20;100882.84;;;3.97
75273;BMP280;63869;52.344;16.928;2023-02-22T05:21:45;100874.78;;;3.90
75273;BMP280;63869;52.344;16.928;2023-02-22T05:24:10;100846.13;;;3.73
75273;BMP280;63869;52.344;16.928;2023-02-22T05:26:36;100877.78;;;3.89
75273;BMP280;63869;52.344;16.928;2023-02-22T05:29:01;100883.47;;;3.91
75273;BMP280;63869;52.344;16.928;2023-02-22T05:31:26;100868.94;;;3.81
75273;BMP280;63869;52.344;16.928;2023-02-22T05:33:52;100880.34;;;3.85
75273;BMP280;63869;52.344;16.928;2023-02-22T05:36:17;100882.81;;;3.78
75273;BMP280;63869;52.344;16.928;2023-02-22T05:38:42;100885.22;;;3.83
75273;BMP280;63869;52.344;16.928;2023-02-22T05:41:10;100876.31;;;3.72
75273;BMP280;63869;52.344;16.928;2023-02-22T05:43:36;100894.53;;;3.77
75273;BMP280;63869;52.344;16.928;2023-02-22T05:46:01;100896.75;;;3.75
75273;BMP280;63869;52.344;16.928;2023-02-22T05:48:27;100883.84;;;3.70
75273;BMP280;63869;52.344;16.928;2023-02-22T05:50:52;100881.06;;;3.63
75273;BMP280;63869;52.344;16.928;2023-02-22T05:53:17;100899.00;;;3.73
75273;BMP280;63869;52.344;16.928;2023-02-22T05:55:43;100888.97;;;3.63
75273;BMP280;63869;52.344;16.928;2023-02-22T05:58:08;100907.56;;;3.66
75273;BMP280;63869;52.344;16.928;2023-02-22T06:00:33;100910.28;;;3.70
75273;BMP280;63869;52.344;16.928;2023-02-22T06:03:01;100906.53;;;3.71
75273;BMP280;63869;52.344;16.928;2023-02-22T06:05:27;100911.81;;;3.71
75273;BMP280;63869;52.344;16.928;2023-02-22T06:07:53;100914.88;;;3.73
75273;BMP280;63869;52.344;16.928;2023-02-22T06:10:19;100916.78;;;3.76
75273;BMP280;63869;52.344;16.928;2023-02-22T06:12:46;100919.84;;;3.78
75273;BMP280;63869;52.344;16.928;2023-02-22T06:15:13;100901.69;;;3.77
75273;BMP280;63869;52.344;16.928;2023-02-22T06:17:39;100911.66;;;3.83
75273;BMP280;63869;52.344;16.928;2023-02-22T06:20:07;100942.16;;;3.96
75273;BMP280;63869;52.344;16.928;2023-02-22T06:22:32;100913.25;;;3.88
75273;BMP280;63869;52.344;16.928;2023-02-22T06:24:58;100943.22;;;4.11
75273;BMP280;63869;52.344;16.928;2023-02-22T06:27:23;100945.25;;;4.21
75273;BMP280;63869;52.344;16.928;2023-02-22T06:29:48;100945.84;;;4.30
75273;BMP280;63869;52.344;16.928;2023-02-22T06:32:14;100945.25;;;4.41
75273;BMP280;63869;52.344;16.928;2023-02-22T06:34:40;100946.88;;;4.45
75273;BMP280;63869;52.344;16.928;2023-02-22T06:37:06;100950.09;;;4.35
75273;BMP280;63869;52.344;16.928;2023-02-22T06:39:32;100907.41;;;3.98
75273;BMP280;63869;52.344;16.928;2023-02-22T06:41:58;100947.41;;;4.12
75273;BMP280;63869;52.344;16.928;2023-02-22T06:44:24;100958.66;;;4.09
75273;BMP280;63869;52.344;16.928;2023-02-22T06:46:50;100950.72;;;3.90
75273;BMP280;63869;52.344;16.928;2023-02-22T06:49:16;100944.09;;;3.80
75273;BMP280;63869;52.344;16.928;2023-02-22T06:51:43;100930.75;;;3.57
75273;BMP280;63869;52.344;16.928;2023-02-22T06:54:09;100951.38;;;3.67
75273;BMP280;63869;52.344;16.928;2023-02-22T06:56:34;100966.13;;;3.68
75273;BMP280;63869;52.344;16.928;2023-02-22T06:59:02;100950.38;;;3.56
75273;BMP280;63869;52.344;16.928;2023-02-22T07:01:29;100958.38;;;3.60
75273;BMP280;63869;52.344;16.928;2023-02-22T07:03:55;100961.63;;;3.53
75273;BMP280;63869;52.344;16.928;2023-02-22T07:06:20;100931.34;;;3.31
75273;BMP280;63869;52.344;16.928;2023-02-22T07:08:46;100957.22;;;3.42
75273;BMP280;63869;52.344;16.928;2023-02-22T07:11:12;100959.44;;;3.39
75273;BMP280;63869;52.344;16.928;2023-02-22T07:13:38;100970.09;;;3.43
75273;BMP280;63869;52.344;16.928;2023-02-22T07:16:04;100961.16;;;3.48
75273;BMP280;63869;52.344;16.928;2023-02-22T07:18:29;100963.66;;;3.60
75273;BMP280;63869;52.344;16.928;2023-02-22T07:20:54;100963.22;;;3.74
75273;BMP280;63869;52.344;16.928;2023-02-22T07:23:22;100953.91;;;3.80
75273;BMP280;63869;52.344;16.928;2023-02-22T07:25:48;100966.88;;;4.04
75273;BMP280;63869;52.344;16.928;2023-02-22T07:28:14;100966.75;;;4.16
75273;BMP280;63869;52.344;16.928;2023-02-22T07:30:39;100970.72;;;4.26
75273;BMP280;63869;52.344;16.928;2023-02-22T07:33:08;100952.19;;;4.26
75273;BMP280;63869;52.344;16.928;2023-02-22T07:35:36;100959.94;;;4.38
75273;BMP280;63869;52.344;16.928;2023-02-22T07:38:04;100976.47;;;4.51
75273;BMP280;63869;52.344;16.928;2023-02-22T07:40:30;100972.34;;;4.53
75273;BMP280;63869;52.344;16.928;2023-02-22T07:43:04;100945.75;;;4.46
75273;BMP280;63869;52.344;16.928;2023-02-22T07:45:33;100975.06;;;4.80
75273;BMP280;63869;52.344;16.928;2023-02-22T07:48:00;100946.41;;;4.62
75273;BMP280;63869;52.344;16.928;2023-02-22T07:50:29;100973.06;;;4.96
75273;BMP280;63869;52.344;16.928;2023-02-22T07:52:56;100970.28;;;5.12
75273;BMP280;63869;52.344;16.928;2023-02-22T07:55:24;100974.69;;;5.27
75273;BMP280;63869;52.344;16.928;2023-02-22T07:57:51;100973.78;;;5.42
75273;BMP280;63869;52.344;16.928;2023-02-22T08:00:25;100974.69;;;5.53
75273;BMP280;63869;52.344;16.928;2023-02-22T08:02:51;100975.66;;;5.68
75273;BMP280;63869;52.344;16.928;2023-02-22T08:05:18;100978.78;;;5.77
75273;BMP280;63869;52.344;16.928;2023-02-22T08:07:43;100973.59;;;5.84
75273;BMP280;63869;52.344;16.928;2023-02-22T08:10:10;100982.66;;;5.83
75273;BMP280;63869;52.344;16.928;2023-02-22T08:12:36;100982.59;;;5.80
75273;BMP280;63869;52.344;16.928;2023-02-22T08:15:07;100995.50;;;5.81
75273;BMP280;63869;52.344;16.928;2023-02-22T08:17:33;100991.28;;;5.77
75273;BMP280;63869;52.344;16.928;2023-02-22T08:19:58;100995.59;;;5.85
75273;BMP280;63869;52.344;16.928;2023-02-22T08:22:23;100995.09;;;5.79
75273;BMP280;63869;52.344;16.928;2023-02-22T08:24:51;101000.75;;;5.74
75273;BMP280;63869;52.344;16.928;2023-02-22T08:27:25;100994.91;;;5.65
75273;BMP280;63869;52.344;16.928;2023-02-22T08:29:51;101003.00;;;5.72
75273;BMP280;63869;52.344;16.928;2023-02-22T08:32:17;100999.94;;;5.70
75273;BMP280;63869;52.344;16.928;2023-02-22T08:34:43;101009.19;;;5.83
75273;BMP280;63869;52.344;16.928;2023-02-22T08:37:12;101008.19;;;5.95
75273;BMP280;63869;52.344;16.928;2023-02-22T08:39:37;101009.53;;;6.12
75273;BMP280;63869;52.344;16.928;2023-02-22T08:42:03;101006.63;;;6.24
75273;BMP280;63869;52.344;16.928;2023-02-22T08:44:28;101005.19;;;6.30
75273;BMP280;63869;52.344;16.928;2023-02-22T08:46:53;100995.47;;;6.45
75273;BMP280;63869;52.344;16.928;2023-02-22T08:49:19;101010.09;;;6.65
75273;BMP280;63869;52.344;16.928;2023-02-22T08:51:45;100998.72;;;6.65
75273;BMP280;63869;52.344;16.928;2023-02-22T08:54:12;101019.88;;;6.94
75273;BMP280;63869;52.344;16.928;2023-02-22T08:56:39;101014.28;;;7.10
75273;BMP280;63869;52.344;16.928;2023-02-22T08:59:04;101012.84;;;7.23
75273;BMP280;63869;52.344;16.928;2023-02-22T09:01:29;101009.91;;;7.39
75273;BMP280;63869;52.344;16.928;2023-02-22T09:03:56;101013.78;;;7.52
75273;BMP280;63869;52.344;16.928;2023-02-22T09:06:22;101022.97;;;7.69
75273;BMP280;63869;52.344;16.928;2023-02-22T09:08:48;101031.03;;;7.83
75273;BMP280;63869;52.344;16.928;2023-02-22T09:11:13;101031.88;;;8.02
75273;BMP280;63869;52.344;16.928;2023-02-22T09:13:38;101030.78;;;8.10
75273;BMP280;63869;52.344;16.928;2023-02-22T09:16:04;101028.53;;;8.22
75273;BMP280;63869;52.344;16.928;2023-02-22T09:18:30;101034.66;;;8.30
75273;BMP280;63869;52.344;16.928;2023-02-22T09:20:55;101020.50;;;8.15
75273;BMP280;63869;52.344;16.928;2023-02-22T09:23:20;101018.63;;;8.09
75273;BMP280;63869;52.344;16.928;2023-02-22T09:25:46;101038.41;;;8.22
75273;BMP280;63869;52.344;16.928;2023-02-22T09:28:12;101038.47;;;8.36
75273;BMP280;63869;52.344;16.928;2023-02-22T09:30:38;101049.91;;;8.54
75273;BMP280;63869;52.344;16.928;2023-02-22T09:33:15;101046.13;;;8.77
75273;BMP280;63869;52.344;16.928;2023-02-22T09:35:42;101050.69;;;8.94
75273;BMP280;63869;52.344;16.928;2023-02-22T09:38:14;101048.81;;;9.09
75273;BMP280;63869;52.344;16.928;2023-02-22T09:40:44;101024.78;;;9.19
75273;BMP280;63869;52.344;16.928;2023-02-22T09:46:12;101033.44;;;9.59
75273;BMP280;63869;52.344;16.928;2023-02-22T09:51:38;101034.47;;;9.93
75273;BMP280;63869;52.344;16.928;2023-02-22T09:54:10;101034.47;;;9.90
75273;BMP280;63869;52.344;16.928;2023-02-22T09:56:39;101028.34;;;9.96
75273;BMP280;63869;52.344;16.928;2023-02-22T09:59:07;101032.53;;;10.01
75273;BMP280;63869;52.344;16.928;2023-02-22T10:01:47;101021.09;;;10.00
75273;BMP280;63869;52.344;16.928;2023-02-22T10:04:38;101030.63;;;9.94
75273;BMP280;63869;52.344;16.928;2023-02-22T10:07:20;101024.56;;;9.90
75273;BMP280;63869;52.344;16.928;2023-02-22T10:09:50;101026.44;;;9.93
75273;BMP280;63869;52.344;16.928;2023-02-22T10:20:53;101026.13;;;9.84
75273;BMP280;63869;52.344;16.928;2023-02-22T10:23:46;101031.78;;;9.93
75273;BMP280;63869;52.344;16.928;2023-02-22T10:26:21;101029.06;;;10.04
75273;BMP280;63869;52.344;16.928;2023-02-22T10:31:23;101029.06;;;10.04
75273;BMP280;63869;52.344;16.928;2023-02-22T10:33:56;101032.06;;;10.17
75273;BMP280;63869;52.344;16.928;2023-02-22T10:36:23;101029.69;;;10.29
75273;BMP280;63869;52.344;16.928;2023-02-22T10:38:54;101030.44;;;10.33
75273;BMP280;63869;52.344;16.928;2023-02-22T10:41:31;101018.78;;;10.54
75273;BMP280;63869;52.344;16.928;2023-02-22T10:43:58;101019.50;;;10.65
75273;BMP280;63869;52.344;16.928;2023-02-22T10:46:24;101037.66;;;10.85
75273;BMP280;63869;52.344;16.928;2023-02-22T10:48:55;101030.38;;;10.89
75273;BMP280;63869;52.344;16.928;2023-02-22T10:51:27;101032.31;;;10.85
75273;BMP280;63869;52.344;16.928;2023-02-22T10:54:18;101033.75;;;10.96
75273;BMP280;63869;52.344;16.928;2023-02-22T10:56:52;101025.31;;;10.98
75273;BMP280;63869;52.344;16.928;2023-02-22T10:59:45;101030.22;;;11.03
75273;BMP280;63869;52.344;16.928;2023-02-22T11:04:48;101027.69;;;10.92
75273;BMP280;63869;52.344;16.928;2023-02-22T11:07:28;101025.41;;;10.91
75273;BMP280;63869;52.344;16.928;2023-02-22T11:09:59;101023.13;;;10.89
75273;BMP280;63869;52.344;16.928;2023-02-22T11:12:28;101025.69;;;11.00
75273;BMP280;63869;52.344;16.928;2023-02-22T11:14:54;101011.50;;;11.03
75273;BMP280;63869;52.344;16.928;2023-02-22T11:17:31;101025.13;;;11.19
75273;BMP280;63869;52.344;16.928;2023-02-22T11:19:59;101019.28;;;11.28
75273;BMP280;63869;52.344;16.928;2023-02-22T11:22:38;101012.00;;;11.28
75273;BMP280;63869;52.344;16.928;2023-02-22T11:25:05;101009.06;;;11.19
75273;BMP280;63869;52.344;16.928;2023-02-22T11:27:39;101018.16;;;11.25
75273;BMP280;63869;52.344;16.928;2023-02-22T11:32:52;100990.31;;;11.19
75273;BMP280;63869;52.344;16.928;2023-02-22T11:35:30;101010.72;;;11.40
75273;BMP280;63869;52.344;16.928;2023-02-22T11:38:15;101013.66;;;11.49
75273;BMP280;63869;52.344;16.928;2023-02-22T11:40:43;101004.41;;;11.57
75273;BMP280;63869;52.344;16.928;2023-02-22T11:43:15;101019.09;;;11.76
75273;BMP280;63869;52.344;16.928;2023-02-22T11:46:02;101017.41;;;11.86
75273;BMP280;63869;52.344;16.928;2023-02-22T11:48:31;101015.06;;;11.91
75273;BMP280;63869;52.344;16.928;2023-02-22T11:51:11;101000.44;;;11.96
75273;BMP280;63869;52.344;16.928;2023-02-22T11:54:18;101008.56;;;12.16
75273;BMP280;63869;52.344;16.928;2023-02-22T11:57:05;100999.72;;;12.19
75273;BMP280;63869;52.344;16.928;2023-02-22T11:59:51;101008.81;;;12.25
75273;BMP280;63869;52.344;16.928;2023-02-22T12:02:40;100989.06;;;12.15
75273;BMP280;63869;52.344;16.928;2023-02-22T12:05:18;101006.03;;;12.32
75273;BMP280;63869;52.344;16.928;2023-02-22T12:08:19;100980.13;;;12.22
75273;BMP280;63869;52.344;16.928;2023-02-22T12:15:54;101014.31;;;12.41
75273;BMP280;63869;52.344;16.928;2023-02-22T12:21:22;101011.56;;;12.44
75273;BMP280;63869;52.344;16.928;2023-02-22T12:24:03;101004.31;;;12.41
75273;BMP280;63869;52.344;16.928;2023-02-22T12:29:30;101000.69;;;12.28
75273;BMP280;63869;52.344;16.928;2023-02-22T12:34:52;101003.22;;;12.16
75273;BMP280;63869;52.344;16.928;2023-02-22T12:45:16;101004.53;;;12.04
75273;BMP280;63869;52.344;16.928;2023-02-22T12:47:53;101001.91;;;12.00
75273;BMP280;63869;52.344;16.928;2023-02-22T12:50:26;101010.09;;;12.17
75273;BMP280;63869;52.344;16.928;2023-02-22T12:53:00;101000.78;;;12.25
75273;BMP280;63869;52.344;16.928;2023-02-22T12:55:43;101009.41;;;12.36
75273;BMP280;63869;52.344;16.928;2023-02-22T12:58:26;101009.41;;;12.36
75273;BMP280;63869;52.344;16.928;2023-02-22T13:01:14;101007.06;;;12.38
75273;BMP280;63869;52.344;16.928;2023-02-22T13:03:43;101008.19;;;12.40
75273;BMP280;63869;52.344;16.928;2023-02-22T13:09:30;100990.22;;;12.14
75273;BMP280;63869;52.344;16.928;2023-02-22T13:12:08;101009.06;;;12.34
75273;BMP280;63869;52.344;16.928;2023-02-22T13:15:01;101011.69;;;12.37
75273;BMP280;63869;52.344;16.928;2023-02-22T13:17:52;100990.84;;;12.22
75273;BMP280;63869;52.344;16.928;2023-02-22T13:20:28;101001.53;;;12.25
75273;BMP280;63869;52.344;16.928;2023-02-22T13:23:01;100997.91;;;12.12
75273;BMP280;63869;52.344;16.928;2023-02-22T13:25:52;101000.19;;;12.13
75273;BMP280;63869;52.344;16.928;2023-02-22T13:28:42;100988.78;;;12.06
75273;BMP280;63869;52.344;16.928;2023-02-22T13:31:47;101003.72;;;12.07
75273;BMP280;63869;52.344;16.928;2023-02-22T13:34:20;101003.81;;;12.00
75273;BMP280;63869;52.344;16.928;2023-02-22T13:40:19;101002.94;;;11.83
75273;BMP280;63869;52.344;16.928;2023-02-22T13:43:44;101005.44;;;11.67
75273;BMP280;63869;52.344;16.928;2023-02-22T13:49:01;101006.09;;;11.44
75273;BMP280;63869;52.344;16.928;2023-02-22T13:51:48;101002.75;;;11.36
75273;BMP280;63869;52.344;16.928;2023-02-22T13:54:41;101004.34;;;11.30
75273;BMP280;63869;52.344;16.928;2023-02-22T13:57:37;101005.69;;;11.12
75273;BMP280;63869;52.344;16.928;2023-02-22T14:03:00;100987.50;;;10.96
75273;BMP280;63869;52.344;16.928;2023-02-22T14:10:57;101001.69;;;10.93
75273;BMP280;63869;52.344;16.928;2023-02-22T14:16:27;100999.34;;;10.95
75273;BMP280;63869;52.344;16.928;2023-02-22T14:19:03;100991.69;;;10.97
75273;BMP280;63869;52.344;16.928;2023-02-22T14:21:31;100996.09;;;11.14
75273;BMP280;63869;52.344;16.928;2023-02-22T14:24:15;100987.38;;;11.40
75273;BMP280;63869;52.344;16.928;2023-02-22T14:26:59;100996.41;;;11.84
75273;BMP280;63869;52.344;16.928;2023-02-22T14:29:26;100986.66;;;12.21
75273;BMP280;63869;52.344;16.928;2023-02-22T14:32:02;100986.41;;;12.58
75273;BMP280;63869;52.344;16.928;2023-02-22T14:37:10;100992.94;;;12.80
75273;BMP280;63869;52.344;16.928;2023-02-22T14:39:50;100980.00;;;12.75
75273;BMP280;63869;52.344;16.928;2023-02-22T14:45:00;100991.63;;;12.89
75273;BMP280;63869;52.344;16.928;2023-02-22T14:50:40;100981.63;;;12.89
75273;BMP280;63869;52.344;16.928;2023-02-22T14:56:41;100984.19;;;12.96
75273;BMP280;63869;52.344;16.928;2023-02-22T15:01:35;100986.13;;;12.96
75273;BMP280;63869;52.344;16.928;2023-02-22T15:04:26;100988.81;;;12.96
75273;BMP280;63869;52.344;16.928;2023-02-22T15:06:53;100996.88;;;12.96
75273;BMP280;63869;52.344;16.928;2023-02-22T15:09:22;100986.13;;;12.96
75273;BMP280;63869;52.344;16.928;2023-02-22T15:11:54;100998.72;;;12.99
75273;BMP280;63869;52.344;16.928;2023-02-22T15:14:38;100992.34;;;12.93
75273;BMP280;63869;52.344;16.928;2023-02-22T15:17:19;100990.31;;;12.97
75273;BMP280;63869;52.344;16.928;2023-02-22T15:19:46;100990.75;;;12.95
75273;BMP280;63869;52.344;16.928;2023-02-22T15:22:35;100987.34;;;12.91
75273;BMP280;63869;52.344;16.928;2023-02-22T15:25:09;100995.91;;;12.86
75273;BMP280;63869;52.344;16.928;2023-02-22T15:27:36;100966.84;;;12.61
75273;BMP280;63869;52.344;16.928;2023-02-22T15:30:05;100991.38;;;12.60
75273;BMP280;63869;52.344;16.928;2023-02-22T15:32:32;100992.28;;;12.53
75273;BMP280;63869;52.344;16.928;2023-02-22T15:35:25;100994.47;;;12.35
75273;BMP280;63869;52.344;16.928;2023-02-22T15:40:38;100979.78;;;11.93
75273;BMP280;63869;52.344;16.928;2023-02-22T15:43:18;100987.06;;;11.69
75273;BMP280;63869;52.344;16.928;2023-02-22T15:45:44;100994.16;;;11.49
75273;BMP280;63869;52.344;16.928;2023-02-22T15:48:10;100981.13;;;11.20
75273;BMP280;63869;52.344;16.928;2023-02-22T15:50:36;100978.75;;;10.92
75273;BMP280;63869;52.344;16.928;2023-02-22T15:53:03;100966.91;;;10.48
75273;BMP280;63869;52.344;16.928;2023-02-22T15:55:42;100982.81;;;10.14
75273;BMP280;63869;52.344;16.928;2023-02-22T15:58:22;100990.28;;;9.78
75273;BMP280;63869;52.344;16.928;2023-02-22T16:00:56;100980.16;;;9.34
75273;BMP280;63869;52.344;16.928;2023-02-22T16:03:24;100985.94;;;8.97
75273;BMP280;63869;52.344;16.928;2023-02-22T16:05:58;100987.88;;;8.68
75273;BMP280;63869;52.344;16.928;2023-02-22T16:08:54;100995.06;;;8.32
75273;BMP280;63869;52.344;16.928;2023-02-22T16:11:26;101000.34;;;8.07
75273;BMP280;63869;52.344;16.928;2023-02-22T16:14:03;101006.31;;;7.79
75273;BMP280;63869;52.344;16.928;2023-02-22T16:16:32;101003.91;;;7.53
75273;BMP280;63869;52.344;16.928;2023-02-22T16:19:27;101000.38;;;7.35
75273;BMP280;63869;52.344;16.928;2023-02-22T16:22:03;101005.13;;;7.08
75273;BMP280;63869;52.344;16.928;2023-02-22T16:24:31;101003.06;;;6.87
75273;BMP280;63869;52.344;16.928;2023-02-22T16:27:16;101004.72;;;6.58
75273;BMP280;63869;52.344;16.928;2023-02-22T16:29:44;101019.00;;;6.46
75273;BMP280;63869;52.344;16.928;2023-02-22T16:32:09;101012.72;;;6.24
75273;BMP280;63869;52.344;16.928;2023-02-22T16:34:36;101010.97;;;6.02
75273;BMP280;63869;52.344;16.928;2023-02-22T16:37:02;101012.53;;;5.80
75273;BMP280;63869;52.344;16.928;2023-02-22T16:39:30;101002.06;;;5.61
75273;BMP280;63869;52.344;16.928;2023-02-22T16:41:57;101017.19;;;5.57
75273;BMP280;63869;52.344;16.928;2023-02-22T16:44:24;101011.97;;;5.38
75273;BMP280;63869;52.344;16.928;2023-02-22T16:47:01;101030.41;;;5.30
75273;BMP280;63869;52.344;16.928;2023-02-22T16:49:26;101022.16;;;5.13
75273;BMP280;63869;52.344;16.928;2023-02-22T16:51:55;101033.13;;;5.11
75273;BMP280;63869;52.344;16.928;2023-02-22T16:54:25;101033.00;;;5.04
75273;BMP280;63869;52.344;16.928;2023-02-22T16:56:54;101028.16;;;4.87
75273;BMP280;63869;52.344;16.928;2023-02-22T16:59:21;101043.22;;;4.83
75273;BMP280;63869;52.344;16.928;2023-02-22T17:01:46;101030.16;;;4.71
75273;BMP280;63869;52.344;16.928;2023-02-22T17:04:20;100991.69;;;4.38
75273;BMP280;63869;52.344;16.928;2023-02-22T17:06:45;101029.13;;;4.56
75273;BMP280;63869;52.344;16.928;2023-02-22T17:09:11;101025.72;;;4.36
75273;BMP280;63869;52.344;16.928;2023-02-22T17:11:37;101032.00;;;4.47
75273;BMP280;63869;52.344;16.928;2023-02-22T17:14:03;101025.28;;;4.53
75273;BMP280;63869;52.344;16.928;2023-02-22T17:16:28;101025.31;;;4.57
75273;BMP280;63869;52.344;16.928;2023-02-22T17:18:54;101036.56;;;4.70
75273;BMP280;63869;52.344;16.928;2023-02-22T17:21:19;101014.47;;;4.62
75273;BMP280;63869;52.344;16.928;2023-02-22T17:23:45;101041.69;;;4.82
75273;BMP280;63869;52.344;16.928;2023-02-22T17:26:11;101041.41;;;4.87
75273;BMP280;63869;52.344;16.928;2023-02-22T17:28:40;101045.31;;;4.93
75273;BMP280;63869;52.344;16.928;2023-02-22T17:31:17;101041.91;;;4.92
75273;BMP280;63869;52.344;16.928;2023-02-22T17:33:43;101035.84;;;4.92
75273;BMP280;63869;52.344;16.928;2023-02-22T17:36:09;101054.19;;;5.04
75273;BMP280;63869;52.344;16.928;2023-02-22T17:38:34;101050.88;;;5.07
75273;BMP280;63869;52.344;16.928;2023-02-22T17:41:00;101045.25;;;5.12
75273;BMP280;63869;52.344;16.928;2023-02-22T17:43:27;101053.59;;;5.14
75273;BMP280;63869;52.344;16.928;2023-02-22T17:45:53;101056.66;;;5.16
75273;BMP280;63869;52.344;16.928;2023-02-22T17:48:18;101028.06;;;5.03
75273;BMP280;63869;52.344;16.928;2023-02-22T17:50:45;101047.59;;;5.17
75273;BMP280;63869;52.344;16.928;2023-02-22T17:53:12;101055.56;;;5.17
75273;BMP280;63869;52.344;16.928;2023-02-22T17:55:41;101050.97;;;5.14
75273;BMP280;63869;52.344;16.928;2023-02-22T17:58:08;101048.31;;;5.14
75273;BMP280;63869;52.344;16.928;2023-02-22T18:00:40;101058.56;;;5.16
75273;BMP280;63869;52.344;16.928;2023-02-22T18:03:09;101046.34;;;5.08
75273;BMP280;63869;52.344;16.928;2023-02-22T18:05:43;101054.31;;;5.11
75273;BMP280;63869;52.344;16.928;2023-02-22T18:08:11;101058.84;;;5.11
75273;BMP280;63869;52.344;16.928;2023-02-22T18:10:36;101041.25;;;4.99
75273;BMP280;63869;52.344;16.928;2023-02-22T18:13:02;101056.94;;;5.08
75273;BMP280;63869;52.344;16.928;2023-02-22T18:15:28;101028.75;;;4.99
75273;BMP280;63869;52.344;16.928;2023-02-22T18:17:54;101045.97;;;5.09
75273;BMP280;63869;52.344;16.928;2023-02-22T18:20:20;101044.44;;;5.08
75273;BMP280;63869;52.344;16.928;2023-02-22T18:22:57;101042.06;;;5.03
75273;BMP280;63869;52.344;16.928;2023-02-22T18:25:23;101040.19;;;5.04
75273;BMP280;63869;52.344;16.928;2023-02-22T18:27:49;101048.91;;;5.04
75273;BMP280;63869;52.344;16.928;2023-02-22T18:30:14;101040.53;;;5.02
75273;BMP280;63869;52.344;16.928;2023-02-22T18:32:39;101044.31;;;5.01
75273;BMP280;63869;52.344;16.928;2023-02-22T18:35:09;101047.38;;;5.03
75273;BMP280;63869;52.344;16.928;2023-02-22T18:37:34;101014.16;;;4.86
75273;BMP280;63869;52.344;16.928;2023-02-22T18:39:59;101025.63;;;4.94
75273;BMP280;63869;52.344;16.928;2023-02-22T18:42:26;101024.47;;;4.91
75273;BMP280;63869;52.344;16.928;2023-02-22T18:44:53;101032.47;;;4.95
75273;BMP280;63869;52.344;16.928;2023-02-22T18:47:20;101037.47;;;5.00
75273;BMP280;63869;52.344;16.928;2023-02-22T18:49:45;101040.88;;;5.01
75273;BMP280;63869;52.344;16.928;2023-02-22T18:52:11;101025.59;;;4.90
75273;BMP280;63869;52.344;16.928;2023-02-22T18:54:38;101030.63;;;4.99
75273;BMP280;63869;52.344;16.928;2023-02-22T18:57:04;101045.78;;;4.98
75273;BMP280;63869;52.344;16.928;2023-02-22T18:59:29;101033.19;;;4.92
75273;BMP280;63869;52.344;16.928;2023-02-22T19:01:55;101039.28;;;4.96
75273;BMP280;63869;52.344;16.928;2023-02-22T19:04:20;101042.09;;;4.84
75273;BMP280;63869;52.344;16.928;2023-02-22T19:06:46;101041.44;;;4.68
75273;BMP280;63869;52.344;16.928;2023-02-22T19:09:14;101033.53;;;4.48
75273;BMP280;63869;52.344;16.928;2023-02-22T19:11:39;101026.69;;;4.28
75273;BMP280;63869;52.344;16.928;2023-02-22T19:14:08;101023.03;;;4.17
75273;BMP280;63869;52.344;16.928;2023-02-22T19:16:34;101021.50;;;3.96
75273;BMP280;63869;52.344;16.928;2023-02-22T19:18:59;101035.00;;;3.91
75273;BMP280;63869;52.344;16.928;2023-02-22T19:21:28;101031.19;;;3.73
75273;BMP280;63869;52.344;16.928;2023-02-22T19:23:54;101024.88;;;3.62
75273;BMP280;63869;52.344;16.928;2023-02-22T19:26:21;101031.81;;;3.51
75273;BMP280;63869;52.344;16.928;2023-02-22T19:28:51;101016.47;;;3.41
75273;BMP280;63869;52.344;16.928;2023-02-22T19:31:24;101012.69;;;3.26
75273;BMP280;63869;52.344;16.928;2023-02-22T19:33:53;101017.16;;;3.22